Time;durP1;ratioP1;P1;durP2;ratioP2;P2;SDS_P1;SDS_P2;PMS_P1;PMS_P2;Temp;Humidity;BMP_temperature;BMP_pressure;BME280_temperature;BME280_humidity;BME280_pressure;Samples;Min_cycle;Max_cycle;Signal;HPM_P1;HPM_P2
2022/11/20 00:01:37;;;;;;;3.08;1.55;;;12.00;59.00;;;;;;6117882;28;20563;-65
2022/11/20 00:04:38;;;;;;;3.28;1.38;;;12.00;59.00;;;;;;6118002;28;20430;-65
2022/11/20 00:07:38;;;;;;;4.57;1.50;;;12.00;59.00;;;;;;6119107;28;20046;-65
2022/11/20 00:10:40;;;;;;;2.03;1.50;;;12.00;59.00;;;;;;6123344;28;20361;-65
2022/11/20 00:13:41;;;;;;;3.80;1.50;;;12.00;58.90;;;;;;6125279;28;20509;-65
2022/11/20 00:16:42;;;;;;;4.35;1.50;;;12.00;58.90;;;;;;6125023;28;20032;-65
2022/11/20 00:19:43;;;;;;;4.80;1.77;;;11.90;58.90;;;;;;6123041;28;20349;-65
2022/11/20 00:22:44;;;;;;;3.20;1.40;;;11.90;59.00;;;;;;6125068;29;20311;-65
2022/11/20 00:25:45;;;;;;;5.03;1.90;;;11.80;59.10;;;;;;6123207;28;20119;-66
2022/11/20 00:28:52;;;;;;;2.35;1.60;;;11.80;59.20;;;;;;6107062;28;20323;-66
2022/11/20 00:31:53;;;;;;;3.03;2.17;;;11.80;59.30;;;;;;6120684;28;20074;-65
2022/11/20 00:34:54;;;;;;;2.85;2.00;;;11.80;59.30;;;;;;6121477;28;20272;-66
2022/11/20 00:37:55;;;;;;;5.63;1.58;;;11.80;59.30;;;;;;6122742;28;20039;-66
2022/11/20 00:40:57;;;;;;;2.35;1.35;;;11.80;59.30;;;;;;6121192;28;20051;-66
2022/11/20 00:43:58;;;;;;;7.85;1.90;;;11.80;59.30;;;;;;6123409;28;20083;-66
2022/11/20 00:46:59;;;;;;;2.13;1.60;;;11.80;59.30;;;;;;6123631;28;20106;-67
2022/11/20 00:50:00;;;;;;;3.72;1.58;;;11.80;59.40;;;;;;6121742;28;20353;-67
2022/11/20 00:53:01;;;;;;;6.35;2.08;;;11.70;59.40;;;;;;6119824;28;20127;-67
2022/11/20 00:56:04;;;;;;;1.90;1.20;;;11.70;59.50;;;;;;6125295;28;20044;-67
2022/11/20 00:59:05;;;;;;;3.78;1.65;;;11.70;59.60;;;;;;6124042;28;20071;-66
2022/11/20 01:02:06;;;;;;;3.92;1.98;;;11.70;59.60;;;;;;6123467;28;20139;-66
2022/11/20 01:05:07;;;;;;;6.68;2.05;;;11.70;59.70;;;;;;6106363;29;20043;-66
2022/11/20 01:08:08;;;;;;;2.22;1.63;;;11.70;59.70;;;;;;6123486;28;20044;-66
2022/11/20 01:11:12;;;;;;;5.72;1.55;;;11.60;59.80;;;;;;6106093;28;20036;-66
2022/11/20 01:14:16;;;;;;;3.22;1.55;;;11.60;59.90;;;;;;6124625;28;20051;-67
2022/11/20 01:17:17;;;;;;;3.63;1.77;;;11.60;59.90;;;;;;6123459;28;20036;-66
2022/11/20 01:20:17;;;;;;;2.25;1.58;;;11.60;60.00;;;;;;6121543;29;20453;-65
2022/11/20 01:23:18;;;;;;;2.38;1.75;;;11.60;59.90;;;;;;6123140;28;20037;-65
2022/11/20 01:26:22;;;;;;;6.72;2.05;;;11.70;59.90;;;;;;6119049;28;20050;-65
2022/11/20 01:29:24;;;;;;;4.43;2.03;;;11.70;59.90;;;;;;6116544;28;20055;-66
2022/11/20 01:32:25;;;;;;;3.38;1.60;;;11.70;59.70;;;;;;6119029;28;20090;-66
2022/11/20 01:35:26;;;;;;;4.50;1.60;;;11.70;59.60;;;;;;6116973;28;20536;-66
2022/11/20 01:38:27;;;;;;;2.03;1.75;;;11.80;59.50;;;;;;6121444;28;20135;-66
2022/11/20 01:44:59;;;;;;;1.95;1.08;;;11.80;59.30;;;;;;6119751;28;20076;-65
2022/11/20 01:48:00;;;;;;;3.28;1.92;;;11.80;59.20;;;;;;6118792;28;20038;-66
2022/11/20 01:51:03;;;;;;;2.42;1.58;;;11.80;59.20;;;;;;6102311;28;20044;-66
2022/11/20 01:54:10;;;;;;;2.22;1.40;;;11.80;59.20;;;;;;6106244;28;20058;-66
2022/11/20 01:57:12;;;;;;;2.85;1.70;;;11.80;59.20;;;;;;6120090;28;20536;-66
2022/11/20 02:00:17;;;;;;;3.28;1.48;;;11.80;59.20;;;;;;6118287;28;20066;-66
2022/11/20 02:03:20;;;;;;;3.10;1.52;;;11.80;59.20;;;;;;6120424;29;20036;-66
2022/11/20 02:06:27;;;;;;;8.02;2.05;;;11.70;59.20;;;;;;6119975;28;20457;-66
2022/11/20 02:09:28;;;;;;;3.97;1.42;;;11.70;59.30;;;;;;6123290;28;20031;-66
2022/11/20 02:15:48;;;;;;;2.15;1.42;;;11.70;59.20;;;;;;6119368;28;20524;-66
2022/11/20 02:18:50;;;;;;;2.00;1.50;;;11.70;59.30;;;;;;6116143;29;20128;-65
2022/11/20 02:21:51;;;;;;;4.15;1.70;;;11.70;59.40;;;;;;6132579;28;20050;-67
2022/11/20 02:24:52;;;;;;;3.10;1.80;;;11.60;59.40;;;;;;6119332;28;20158;-67
2022/11/20 02:27:53;;;;;;;4.45;1.70;;;11.60;59.40;;;;;;6120940;28;20047;-65
2022/11/20 02:30:53;;;;;;;2.45;1.60;;;11.60;59.40;;;;;;6116914;28;20059;-66
2022/11/20 02:33:58;;;;;;;4.30;2.03;;;11.60;59.40;;;;;;6119608;28;20365;-66
2022/11/20 02:36:59;;;;;;;3.58;1.90;;;11.60;59.40;;;;;;6119309;28;20054;-66
2022/11/20 02:40:00;;;;;;;2.80;1.70;;;11.60;59.30;;;;;;6105620;28;20043;-66
2022/11/20 02:43:01;;;;;;;4.70;2.03;;;11.60;59.30;;;;;;6122928;28;20421;-66
2022/11/20 02:46:02;;;;;;;2.70;1.50;;;11.50;59.10;;;;;;6116101;28;20040;-66
2022/11/20 02:49:04;;;;;;;7.00;2.25;;;11.50;59.00;;;;;;6119861;28;20261;-66
2022/11/20 02:52:05;;;;;;;5.63;2.38;;;11.50;59.00;;;;;;6106011;28;20031;-66
2022/11/20 02:55:06;;;;;;;6.13;2.20;;;11.40;58.90;;;;;;6120725;28;20059;-66
2022/11/20 02:58:07;;;;;;;5.53;1.90;;;11.30;59.00;;;;;;6120386;28;20111;-66
2022/11/20 03:01:08;;;;;;;5.65;1.80;;;11.20;59.00;;;;;;6118579;28;20040;-66
2022/11/20 03:04:09;;;;;;;3.40;1.58;;;11.20;59.10;;;;;;6121528;28;20110;-66
2022/11/20 03:07:09;;;;;;;4.70;2.20;;;11.10;59.10;;;;;;6121690;28;20040;-66
2022/11/20 03:10:11;;;;;;;5.78;1.80;;;11.10;59.20;;;;;;6122710;28;20051;-66
2022/11/20 03:13:11;;;;;;;4.88;1.92;;;11.00;59.10;;;;;;6122182;28;20048;-66
2022/11/20 03:16:18;;;;;;;5.40;1.67;;;11.00;59.20;;;;;;6121376;28;20044;-65
2022/11/20 03:19:19;;;;;;;3.40;1.70;;;11.00;59.30;;;;;;6115932;28;20107;-66
2022/11/20 03:22:20;;;;;;;3.72;1.73;;;11.00;59.40;;;;;;6116563;28;20042;-66
2022/11/20 03:25:22;;;;;;;2.83;1.60;;;10.90;59.40;;;;;;6118471;28;20485;-65
2022/11/20 03:28:22;;;;;;;2.83;1.48;;;10.90;59.40;;;;;;6117621;28;20043;-66
2022/11/20 03:31:32;;;;;;;6.97;1.60;;;10.90;59.40;;;;;;6115489;28;20050;-66
2022/11/20 03:34:33;;;;;;;4.35;2.38;;;10.90;59.40;;;;;;6118583;28;20080;-66
2022/11/20 03:37:34;;;;;;;3.97;2.50;;;10.90;59.50;;;;;;6103367;28;20039;-66
2022/11/20 03:40:35;;;;;;;2.75;2.17;;;11.00;59.70;;;;;;6119948;28;20043;-66
2022/11/20 03:43:36;;;;;;;3.03;2.15;;;11.00;59.90;;;;;;6121121;28;20040;-67
2022/11/20 03:46:37;;;;;;;4.35;2.00;;;11.00;59.90;;;;;;6122562;28;20031;-66
2022/11/20 03:49:38;;;;;;;3.75;2.08;;;11.00;59.90;;;;;;6105843;29;20058;-66
2022/11/20 03:52:39;;;;;;;4.68;2.13;;;11.00;59.80;;;;;;6123583;28;20055;-66
2022/11/20 03:55:40;;;;;;;5.05;1.90;;;11.10;59.80;;;;;;6121411;28;20095;-66
2022/11/20 03:58:41;;;;;;;3.97;2.13;;;11.10;59.70;;;;;;6125180;28;20036;-65
2022/11/20 04:01:43;;;;;;;6.22;1.67;;;11.10;59.60;;;;;;6122002;28;20043;-67
2022/11/20 04:04:43;;;;;;;3.63;1.67;;;11.00;59.60;;;;;;6125680;28;20036;-68
2022/11/20 04:07:44;;;;;;;7.65;1.90;;;11.00;59.50;;;;;;6106645;28;20046;-66
2022/11/20 04:10:45;;;;;;;2.58;1.52;;;11.00;59.50;;;;;;6125290;28;20388;-68
2022/11/20 04:13:52;;;;;;;3.10;1.70;;;11.00;59.50;;;;;;6125151;28;20036;-65
2022/11/20 04:16:53;;;;;;;8.55;2.20;;;11.00;59.40;;;;;;6122811;28;20043;-66
2022/11/20 04:19:54;;;;;;;3.53;1.90;;;11.00;59.40;;;;;;6124110;28;20169;-66
2022/11/20 04:22:55;;;;;;;3.25;1.77;;;11.00;59.40;;;;;;6116076;28;20070;-66
2022/11/20 04:26:04;;;;;;;4.70;1.80;;;11.00;59.40;;;;;;6123034;28;20584;-65
2022/11/20 04:29:05;;;;;;;11.88;2.10;;;10.90;59.20;;;;;;6105150;28;20073;-66
2022/11/20 04:32:06;;;;;;;5.25;1.80;;;10.90;59.20;;;;;;6122240;28;20369;-66
2022/11/20 04:35:07;;;;;;;3.50;1.67;;;10.80;59.30;;;;;;6124994;28;20043;-66
2022/11/20 04:38:08;;;;;;;4.55;1.83;;;10.80;59.50;;;;;;6124608;28;20063;-66
2022/11/20 04:41:17;;;;;;;7.03;1.67;;;10.80;59.50;;;;;;6119294;28;20043;-66
2022/11/20 04:44:18;;;;;;;4.72;2.00;;;10.70;59.50;;;;;;6107465;29;20051;-66
2022/11/20 04:47:18;;;;;;;7.70;1.83;;;10.80;59.50;;;;;;6125344;28;20090;-66
2022/11/20 04:50:19;;;;;;;5.53;1.85;;;10.80;59.50;;;;;;6123092;28;20051;-66
2022/11/20 04:53:21;;;;;;;7.13;2.22;;;10.80;60.20;;;;;;6122490;28;20058;-65
2022/11/20 04:56:23;;;;;;;5.78;1.70;;;10.80;59.50;;;;;;6125283;28;20040;-65
2022/11/20 04:59:24;;;;;;;5.63;1.90;;;10.90;59.40;;;;;;6123686;28;20082;-65
2022/11/20 05:02:24;;;;;;;3.80;1.73;;;10.90;59.40;;;;;;6125158;28;20048;-66
2022/11/20 05:05:25;;;;;;;8.57;2.17;;;10.90;59.40;;;;;;6121635;28;20044;-66
2022/11/20 05:08:26;;;;;;;3.17;1.83;;;10.90;59.40;;;;;;6124445;28;20046;-66
2022/11/20 05:11:28;;;;;;;3.50;1.85;;;10.90;59.30;;;;;;6120909;28;20039;-66
2022/11/20 05:14:29;;;;;;;9.52;2.15;;;10.90;59.30;;;;;;6117989;29;20170;-66
2022/11/20 05:17:30;;;;;;;3.15;1.70;;;10.90;59.20;;;;;;6118988;28;20047;-65
2022/11/20 05:20:31;;;;;;;2.47;1.58;;;11.00;59.20;;;;;;6102635;28;20039;-66
2022/11/20 05:23:33;;;;;;;4.43;1.77;;;11.00;59.20;;;;;;6121367;28;20053;-66
2022/11/20 05:26:34;;;;;;;3.97;2.10;;;11.00;59.20;;;;;;6121950;28;20472;-65
2022/11/20 05:29:35;;;;;;;2.80;1.48;;;11.00;59.20;;;;;;6122433;28;20082;-67
2022/11/20 05:32:35;;;;;;;3.35;1.73;;;11.00;59.20;;;;;;6120297;28;20114;-67
2022/11/20 05:35:36;;;;;;;2.13;1.63;;;11.00;59.10;;;;;;6121424;29;20038;-66
2022/11/20 05:38:38;;;;;;;4.05;1.85;;;11.00;59.10;;;;;;6116534;28;20039;-66
2022/11/20 05:41:38;;;;;;;6.90;1.70;;;11.00;59.10;;;;;;6122295;29;20124;-67
2022/11/20 05:44:39;;;;;;;3.20;1.80;;;11.00;59.20;;;;;;6124247;28;20046;-66
2022/11/20 05:47:40;;;;;;;7.72;1.98;;;11.00;59.30;;;;;;6104607;28;20044;-67
2022/11/20 05:50:41;;;;;;;4.88;2.35;;;11.00;59.30;;;;;;6118037;28;20040;-66
2022/11/20 05:53:42;;;;;;;2.85;1.67;;;11.00;59.30;;;;;;6120038;28;20036;-66
2022/11/20 05:56:43;;;;;;;3.45;1.85;;;11.00;59.30;;;;;;6123667;28;20051;-65
2022/11/20 05:59:44;;;;;;;3.67;1.88;;;11.00;59.30;;;;;;6119817;28;20134;-66
2022/11/20 06:02:45;;;;;;;9.77;2.25;;;10.90;59.20;;;;;;6118861;29;20035;-66
2022/11/20 06:05:46;;;;;;;3.33;1.98;;;10.90;59.30;;;;;;6122178;28;20048;-67
2022/11/20 06:08:47;;;;;;;3.90;1.75;;;10.90;59.40;;;;;;6121889;28;20039;-65
2022/11/20 06:11:48;;;;;;;3.92;2.20;;;10.90;59.30;;;;;;6120420;28;20043;-65
2022/11/20 06:14:49;;;;;;;4.53;1.92;;;10.90;59.40;;;;;;6120353;29;20540;-66
2022/11/20 06:17:53;;;;;;;3.47;1.55;;;10.90;59.40;;;;;;6118921;28;20379;-66
2022/11/20 06:21:11;;;;;;;3.55;1.73;;;10.90;59.40;;;;;;6105265;28;20070;-66
2022/11/20 06:24:12;;;;;;;5.83;1.87;;;10.90;59.40;;;;;;6119242;28;20039;-66
2022/11/20 06:27:13;;;;;;;3.70;1.77;;;10.90;59.40;;;;;;6122926;28;20425;-66
2022/11/20 06:30:14;;;;;;;4.18;1.73;;;10.80;59.40;;;;;;6120503;28;20043;-66
2022/11/20 06:33:15;;;;;;;5.82;1.63;;;10.80;59.50;;;;;;6119068;28;20044;-66
2022/11/20 06:36:18;;;;;;;2.97;1.70;;;10.70;59.50;;;;;;6120957;28;20042;-65
2022/11/20 06:39:19;;;;;;;6.90;2.25;;;10.70;59.60;;;;;;6119178;28;20039;-66
2022/11/20 06:42:19;;;;;;;4.68;1.90;;;10.70;59.60;;;;;;6122234;28;20095;-65
2022/11/20 06:45:21;;;;;;;6.40;1.98;;;10.70;59.70;;;;;;6122044;28;20371;-66
2022/11/20 06:48:23;;;;;;;8.35;1.98;;;10.70;59.70;;;;;;6101860;29;20036;-66
2022/11/20 06:51:25;;;;;;;6.40;2.20;;;10.70;59.70;;;;;;6121339;28;20105;-66
2022/11/20 06:54:26;;;;;;;7.53;2.22;;;10.70;59.70;;;;;;6120912;28;20043;-65
2022/11/20 06:57:27;;;;;;;3.38;1.88;;;10.70;59.70;;;;;;6123048;28;20098;-66
2022/11/20 07:00:27;;;;;;;5.13;2.03;;;10.70;59.70;;;;;;6118840;29;20056;-65
2022/11/20 07:03:28;;;;;;;4.30;1.90;;;10.70;59.70;;;;;;6120282;28;20107;-66
2022/11/20 07:06:29;;;;;;;3.35;1.70;;;10.70;59.70;;;;;;6120350;28;20036;-67
2022/11/20 07:09:30;;;;;;;10.07;2.30;;;10.60;59.70;;;;;;6121309;28;20043;-66
2022/11/20 07:12:31;;;;;;;4.38;1.92;;;10.70;59.80;;;;;;6119826;28;20051;-66
2022/11/20 07:15:32;;;;;;;3.63;1.80;;;10.60;59.70;;;;;;6116677;28;20094;-66
2022/11/20 07:18:33;;;;;;;5.88;2.58;;;10.70;59.80;;;;;;6117275;29;20055;-66
2022/11/20 07:21:34;;;;;;;4.80;2.35;;;10.70;59.80;;;;;;6121277;28;20047;-66
2022/11/20 07:24:35;;;;;;;4.43;2.40;;;10.60;59.70;;;;;;6120062;28;20075;-66
2022/11/20 07:27:36;;;;;;;5.75;2.72;;;10.70;59.90;;;;;;6105651;28;20126;-66
2022/11/20 07:30:37;;;;;;;7.68;2.30;;;10.60;59.80;;;;;;6118995;29;20346;-67
2022/11/20 07:33:38;;;;;;;9.38;2.58;;;10.70;59.90;;;;;;6118911;28;20473;-67
2022/11/20 07:36:39;;;;;;;11.95;2.80;;;10.70;59.80;;;;;;6120091;28;20050;-66
2022/11/20 07:39:40;;;;;;;4.82;2.20;;;10.70;59.80;;;;;;6120768;29;20050;-67
2022/11/20 07:42:52;;;;;;;6.38;2.22;;;10.70;60.60;;;;;;6120281;28;20540;-65
2022/11/20 07:45:56;;;;;;;8.60;2.83;;;10.80;59.80;;;;;;6114416;28;20032;-65
2022/11/20 07:48:56;;;;;;;4.07;1.98;;;10.80;59.80;;;;;;6119279;28;20046;-66
2022/11/20 07:51:57;;;;;;;20.90;3.47;;;10.80;59.80;;;;;;6105780;28;20035;-65
2022/11/20 07:54:58;;;;;;;6.78;2.28;;;10.90;59.80;;;;;;6119940;28;20098;-66
2022/11/20 07:57:59;;;;;;;8.52;2.63;;;10.90;59.80;;;;;;6117888;28;20477;-66
2022/11/20 08:01:05;;;;;;;4.30;2.67;;;10.90;59.80;;;;;;6118421;28;20492;-66
2022/11/20 08:04:06;;;;;;;7.70;1.90;;;11.00;59.70;;;;;;6115603;28;20528;-66
2022/11/20 08:07:07;;;;;;;5.03;2.17;;;11.00;59.70;;;;;;6115099;28;20122;-66
2022/11/20 08:10:12;;;;;;;10.77;2.72;;;11.10;59.60;;;;;;6117866;28;20074;-66
2022/11/20 08:16:33;;;;;;;4.00;2.20;;;11.30;59.50;;;;;;6115687;28;20050;-66
2022/11/20 08:19:34;;;;;;;3.15;1.90;;;11.30;59.30;;;;;;6119959;28;20056;-65
2022/11/20 08:22:35;;;;;;;4.18;2.17;;;11.40;59.20;;;;;;6119767;28;20123;-66
2022/11/20 08:25:37;;;;;;;5.20;2.10;;;11.40;59.10;;;;;;6116014;28;20039;-66
2022/11/20 08:28:38;;;;;;;6.32;2.20;;;11.50;58.90;;;;;;6119967;28;20098;-65
2022/11/20 08:31:39;;;;;;;4.13;1.88;;;11.50;58.90;;;;;;6121799;28;20032;-66
2022/11/20 08:34:40;;;;;;;10.07;2.10;;;11.50;58.80;;;;;;6122622;28;20050;-66
2022/11/20 08:37:41;;;;;;;4.47;2.30;;;11.60;58.70;;;;;;6120093;28;20036;-66
2022/11/20 08:41:23;;;;;;;5.03;2.40;;;11.60;58.70;;;;;;6120224;28;20035;-68
2022/11/20 08:44:04;;;;;;;7.13;2.13;;;11.70;58.70;;;;;;6119039;28;20031;-66
2022/11/20 08:47:05;;;;;;;7.20;2.20;;;11.80;58.70;;;;;;6117801;28;20484;-66
2022/11/20 08:50:07;;;;;;;7.97;2.60;;;11.90;58.40;;;;;;6118721;29;20036;-66
2022/11/20 08:53:08;;;;;;;7.40;2.20;;;11.90;58.20;;;;;;6118135;28;20027;-66
2022/11/20 08:56:12;;;;;;;6.80;2.85;;;12.00;57.90;;;;;;6122640;28;20047;-66
2022/11/20 08:59:13;;;;;;;5.00;2.33;;;12.00;57.90;;;;;;6121604;28;20135;-65
2022/11/20 09:02:15;;;;;;;3.45;1.67;;;12.10;57.90;;;;;;6121815;28;20054;-66
2022/11/20 09:05:15;;;;;;;4.82;2.40;;;12.20;57.80;;;;;;6123428;28;20055;-67
2022/11/20 09:08:16;;;;;;;12.82;2.97;;;12.20;57.60;;;;;;6122133;29;20556;-66
2022/11/20 09:11:17;;;;;;;7.45;3.10;;;12.20;57.50;;;;;;6116287;28;20039;-66
2022/11/20 09:14:18;;;;;;;6.43;2.53;;;12.30;57.60;;;;;;6103395;28;20074;-66
2022/11/20 09:17:20;;;;;;;15.40;3.10;;;12.30;57.40;;;;;;6119122;28;20074;-66
2022/11/20 09:20:21;;;;;;;6.03;2.67;;;12.40;57.50;;;;;;6117532;28;20035;-66
2022/11/20 09:23:22;;;;;;;7.93;2.95;;;12.40;57.30;;;;;;6119325;28;20050;-66
2022/11/20 09:26:23;;;;;;;6.00;2.45;;;12.50;57.30;;;;;;6118926;28;20440;-65
2022/11/20 09:29:23;;;;;;;6.45;2.50;;;12.60;57.30;;;;;;6117423;28;20418;-66
2022/11/20 09:32:24;;;;;;;4.15;2.42;;;12.70;57.20;;;;;;6121453;28;20036;-66
2022/11/20 09:35:25;;;;;;;4.13;2.67;;;12.70;57.20;;;;;;6119057;28;20464;-66
2022/11/20 09:38:26;;;;;;;5.93;2.20;;;12.80;57.10;;;;;;6119337;28;20040;-66
2022/11/20 09:41:36;;;;;;;2.78;1.63;;;12.80;56.80;;;;;;6119220;28;20149;-66
2022/11/20 09:45:01;;;;;;;3.42;2.03;;;12.90;56.60;;;;;;6120396;28;20043;-66
2022/11/20 09:48:37;;;;;;;5.65;2.30;;;13.00;56.70;;;;;;6112986;28;20035;-66
2022/11/20 09:51:53;;;;;;;5.18;1.73;;;13.20;56.30;;;;;;6118181;28;20484;-65
2022/11/20 09:54:55;;;;;;;2.75;1.55;;;13.50;55.70;;;;;;6119797;28;20051;-66
2022/11/20 09:57:59;;;;;;;5.68;1.58;;;13.80;55.10;;;;;;6114812;28;20481;-65
2022/11/20 10:01:11;;;;;;;5.10;1.95;;;13.90;54.40;;;;;;6120061;28;20099;-66
2022/11/20 10:04:17;;;;;;;7.93;2.33;;;13.80;53.90;;;;;;6117094;28;20035;-66
2022/11/20 10:07:57;;;;;;;3.38;1.73;;;13.70;53.70;;;;;;6120943;28;20552;-66
2022/11/20 10:11:32;;;;;;;1.92;1.55;;;13.60;54.00;;;;;;6118031;28;20043;-66
2022/11/20 10:14:59;;;;;;;5.07;1.40;;;13.60;53.90;;;;;;6116901;28;20036;-66
2022/11/20 10:18:29;;;;;;;12.88;3.05;;;13.60;53.90;;;;;;6115235;28;20040;-66
2022/11/20 10:21:48;;;;;;;6.55;1.70;;;13.60;53.80;;;;;;6114725;28;20138;-66
2022/11/20 10:24:57;;;;;;;2.97;1.40;;;13.70;53.80;;;;;;6116468;28;20032;-66
2022/11/20 10:28:23;;;;;;;15.43;1.63;;;13.80;53.30;;;;;;6118374;28;20043;-65
2022/11/20 10:31:40;;;;;;;6.65;1.35;;;14.00;52.70;;;;;;6109413;28;20055;-66
2022/11/20 10:34:52;;;;;;;1.15;0.85;;;14.10;52.40;;;;;;6120464;28;20051;-66
2022/11/20 10:37:59;;;;;;;8.10;1.60;;;14.40;51.90;;;;;;6117671;28;20394;-66
2022/11/20 10:47:47;;;;;;;2.03;1.52;;;14.70;51.10;;;;;;6116117;28;20032;-66
2022/11/20 10:51:12;;;;;;;12.48;2.05;;;14.70;50.70;;;;;;6120249;28;20028;-66
2022/11/20 10:54:52;;;;;;;3.00;1.65;;;14.70;50.60;;;;;;6116207;28;20043;-66
2022/11/20 10:58:27;;;;;;;4.43;1.92;;;14.50;50.30;;;;;;6116202;28;20120;-66
2022/11/20 11:01:29;;;;;;;4.45;1.77;;;14.50;50.40;;;;;;6113811;28;20090;-65
2022/11/20 11:04:39;;;;;;;11.35;1.98;;;14.50;50.40;;;;;;6116010;28;20036;-66
2022/11/20 11:07:40;;;;;;;1.35;1.10;;;14.50;50.40;;;;;;6110654;28;20031;-66
2022/11/20 11:10:54;;;;;;;4.97;1.77;;;14.50;50.30;;;;;;6100144;28;20035;-66
2022/11/20 11:14:12;;;;;;;6.07;1.38;;;14.80;50.20;;;;;;6114625;28;20036;-66
2022/11/20 11:17:46;;;;;;;5.70;1.50;;;15.10;49.50;;;;;;6114983;28;20522;-66
2022/11/20 11:20:51;;;;;;;6.72;1.70;;;15.30;49.10;;;;;;6115823;28;20044;-66
2022/11/20 11:24:03;;;;;;;3.55;1.60;;;15.40;48.70;;;;;;6117153;28;20082;-66
2022/11/20 11:27:13;;;;;;;5.03;1.88;;;15.40;48.50;;;;;;6116213;28;20110;-66
2022/11/20 11:30:16;;;;;;;14.68;1.73;;;15.40;48.40;;;;;;6111956;28;20478;-66
2022/11/20 11:33:26;;;;;;;5.93;1.35;;;15.40;48.40;;;;;;6119125;28;20032;-66
2022/11/20 11:36:27;;;;;;;2.92;1.38;;;15.50;48.20;;;;;;6117025;28;20103;-67
2022/11/20 11:39:30;;;;;;;4.38;1.67;;;16.00;47.50;;;;;;6114018;28;20386;-65
2022/11/20 11:42:31;;;;;;;6.00;1.48;;;16.50;46.80;;;;;;6129652;28;20067;-66
2022/11/20 11:45:32;;;;;;;2.75;1.20;;;16.70;45.80;;;;;;6118029;28;20059;-66
2022/11/20 11:48:33;;;;;;;4.35;1.60;;;16.60;45.50;;;;;;6096455;28;20066;-66
2022/11/20 11:52:04;;;;;;;1.77;1.10;;;16.40;45.60;;;;;;6112685;28;20515;-66
2022/11/20 11:55:10;;;;;;;3.33;1.27;;;16.20;45.80;;;;;;6133046;28;20040;-66
2022/11/20 11:58:22;;;;;;;41.70;16.65;;;16.10;46.00;;;;;;6102879;28;20047;-67
2022/11/20 12:01:34;;;;;;;2.35;1.50;;;16.00;46.30;;;;;;6112456;28;20409;-66
2022/11/20 12:04:50;;;;;;;3.80;1.42;;;15.90;46.20;;;;;;6118264;29;20146;-66
2022/11/20 12:08:16;;;;;;;2.90;1.25;;;15.90;46.30;;;;;;6122804;28;20416;-65
2022/11/20 12:11:33;;;;;;;4.28;1.25;;;15.90;46.30;;;;;;6119089;28;20094;-66
2022/11/20 12:14:36;;;;;;;4.45;1.20;;;16.00;46.10;;;;;;6122990;28;20406;-66
2022/11/20 12:17:37;;;;;;;2.92;1.23;;;15.90;45.70;;;;;;6135088;28;20035;-67
2022/11/20 12:20:45;;;;;;;2.20;1.30;;;15.90;45.60;;;;;;6123080;28;20047;-66
2022/11/20 12:23:58;;;;;;;2.83;1.58;;;15.80;45.70;;;;;;6122407;28;20047;-66
2022/11/20 12:27:17;;;;;;;2.53;1.42;;;15.90;45.60;;;;;;6120831;28;20038;-67
2022/11/20 12:30:19;;;;;;;3.13;1.40;;;16.00;45.50;;;;;;6115819;28;20126;-66
2022/11/20 12:33:41;;;;;;;7.90;1.60;;;15.90;45.30;;;;;;6118294;28;20127;-66
2022/11/20 12:36:49;;;;;;;1.25;1.05;;;15.90;45.50;;;;;;6123231;28;20558;-66
2022/11/20 12:39:50;;;;;;;7.45;2.03;;;15.80;45.70;;;;;;6106170;29;20039;-66
2022/11/20 12:46:50;;;;;;;3.20;1.13;;;15.60;45.90;;;;;;6072480;29;20041;-66
2022/11/20 12:50:02;;;;;;;8.35;0.98;;;15.50;45.70;;;;;;6059714;29;20036;-66
2022/11/20 12:53:21;;;;;;;1.73;1.05;;;15.40;45.60;;;;;;6074217;29;20033;-66
2022/11/20 12:56:43;;;;;;;1.50;1.13;;;15.30;45.60;;;;;;6063214;29;20085;-65
2022/11/20 12:59:47;;;;;;;1.83;1.25;;;15.30;45.60;;;;;;6057653;29;20049;-66
2022/11/20 13:03:07;;;;;;;9.88;4.68;;;15.20;45.30;;;;;;6060266;29;20617;-66
2022/11/20 13:06:15;;;;;;;2.20;1.48;;;15.10;45.40;;;;;;6075993;29;20529;-66
2022/11/20 13:09:21;;;;;;;2.73;1.10;;;15.10;45.30;;;;;;6059504;29;20051;-66
2022/11/20 13:12:44;;;;;;;1.67;1.15;;;15.00;45.40;;;;;;6060633;29;20280;-66
2022/11/20 13:15:55;;;;;;;2.38;1.35;;;15.00;45.40;;;;;;6068436;29;20050;-65
2022/11/20 13:19:01;;;;;;;18.73;9.18;;;15.00;45.40;;;;;;6071058;29;20119;-67
2022/11/20 13:22:02;;;;;;;1.48;1.30;;;15.00;45.50;;;;;;6079486;28;20504;-66
2022/11/20 13:25:03;;;;;;;1.40;1.00;;;15.00;45.30;;;;;;6118721;28;20048;-66
2022/11/20 13:28:05;;;;;;;2.40;1.50;;;15.00;44.90;;;;;;6118607;28;20685;-66
2022/11/20 13:31:35;;;;;;;2.05;1.33;;;15.00;44.90;;;;;;6119298;28;20464;-66
2022/11/20 13:34:36;;;;;;;4.35;1.38;;;14.90;44.90;;;;;;6118211;28;20087;-66
2022/11/20 13:37:38;;;;;;;2.05;1.27;;;14.90;45.00;;;;;;6119340;28;20031;-65
2022/11/20 13:41:27;;;;;;;1.85;1.13;;;14.90;44.80;;;;;;6121237;28;20441;-67
2022/11/20 13:44:32;;;;;;;1.65;0.85;;;14.80;44.60;;;;;;6119675;28;20449;-65
2022/11/20 13:47:35;;;;;;;5.88;1.10;;;14.80;44.60;;;;;;6119728;28;20065;-66
2022/11/20 13:50:36;;;;;;;2.53;1.40;;;14.80;44.60;;;;;;6117701;28;20032;-66
2022/11/20 13:53:47;;;;;;;3.17;1.23;;;14.80;44.10;;;;;;6115812;28;20369;-65
2022/11/20 13:57:09;;;;;;;1.15;0.77;;;14.80;43.80;;;;;;6120139;28;20380;-66
2022/11/20 14:00:12;;;;;;;1.77;0.90;;;14.80;43.80;;;;;;6118710;28;20044;-65
2022/11/20 14:03:22;;;;;;;3.88;1.33;;;14.70;43.70;;;;;;6119475;28;20040;-65
2022/11/20 14:06:38;;;;;;;2.03;1.30;;;14.70;43.60;;;;;;6119676;28;20447;-65
2022/11/20 14:09:48;;;;;;;1.63;0.95;;;14.80;44.00;;;;;;6117488;28;20036;-67
2022/11/20 14:12:50;;;;;;;2.15;0.90;;;14.80;44.20;;;;;;6116577;28;20055;-66
2022/11/20 14:15:57;;;;;;;1.85;0.90;;;14.90;44.50;;;;;;6116538;28;20054;-65
2022/11/20 14:19:19;;;;;;;3.03;1.23;;;14.80;44.80;;;;;;6117601;28;20127;-67
2022/11/20 14:22:25;;;;;;;47.78;19.77;;;14.80;44.90;;;;;;6115384;28;20451;-66
2022/11/20 14:25:30;;;;;;;1.77;1.33;;;14.80;45.10;;;;;;6118404;28;20036;-65
2022/11/20 14:28:32;;;;;;;3.53;1.02;;;14.80;45.10;;;;;;6118485;28;20103;-65
2022/11/20 14:31:34;;;;;;;2.10;1.20;;;14.80;45.10;;;;;;6117628;28;20051;-64
2022/11/20 14:34:42;;;;;;;2.45;0.90;;;14.70;45.10;;;;;;6104374;28;20032;-65
2022/11/20 14:37:43;;;;;;;1.10;0.93;;;14.70;45.10;;;;;;6118921;29;20102;-66
2022/11/20 14:40:44;;;;;;;2.90;1.15;;;14.70;45.10;;;;;;6102077;28;20413;-66
2022/11/20 14:43:47;;;;;;;1.58;1.08;;;14.70;45.10;;;;;;6119586;28;20067;-65
2022/11/20 14:46:48;;;;;;;1.25;1.15;;;14.60;45.10;;;;;;6113025;29;20099;-66
2022/11/20 14:49:51;;;;;;;1.95;1.10;;;14.60;45.10;;;;;;6120720;28;20114;-67
2022/11/20 14:52:54;;;;;;;1.75;0.95;;;14.60;45.30;;;;;;6117140;28;20187;-66
2022/11/20 14:55:58;;;;;;;5.95;2.08;;;14.50;45.30;;;;;;6113942;28;20047;-66
2022/11/20 14:58:59;;;;;;;2.33;1.27;;;14.40;45.40;;;;;;6111584;28;20035;-65
2022/11/20 15:02:11;;;;;;;1.45;1.00;;;14.40;45.50;;;;;;6101476;28;20055;-65
2022/11/20 15:05:13;;;;;;;3.10;1.33;;;14.40;45.70;;;;;;6088658;29;20035;-66
2022/11/20 15:08:15;;;;;;;1.48;1.17;;;14.30;45.80;;;;;;6120640;28;20473;-68
2022/11/20 15:11:19;;;;;;;1.63;1.30;;;14.30;45.90;;;;;;6117718;28;20472;-65
2022/11/20 15:14:20;;;;;;;1.90;1.20;;;14.30;46.10;;;;;;6120497;28;20055;-66
2022/11/20 15:17:21;;;;;;;2.78;1.35;;;14.20;46.10;;;;;;6119567;28;20043;-65
2022/11/20 15:20:26;;;;;;;2.33;1.52;;;14.20;46.20;;;;;;6103726;28;20299;-65
2022/11/20 15:23:29;;;;;;;2.92;1.02;;;14.20;46.40;;;;;;6122716;28;20036;-65
2022/11/20 15:26:31;;;;;;;4.10;1.98;;;14.20;46.50;;;;;;6116112;29;20055;-65
2022/11/20 15:29:32;;;;;;;2.13;1.20;;;14.10;46.60;;;;;;6106906;29;20044;-64
2022/11/20 15:32:33;;;;;;;4.78;1.27;;;14.10;46.80;;;;;;6121427;28;20059;-65
2022/11/20 15:35:34;;;;;;;3.55;1.63;;;14.10;46.90;;;;;;6102308;29;20039;-66
2022/11/20 15:38:35;;;;;;;3.78;1.55;;;14.00;46.90;;;;;;6118135;28;20032;-65
2022/11/20 15:41:36;;;;;;;2.85;1.05;;;14.00;47.00;;;;;;6119584;28;20040;-65
2022/11/20 15:44:37;;;;;;;1.90;1.30;;;14.00;47.00;;;;;;6122331;28;20114;-64
2022/11/20 15:47:38;;;;;;;5.32;1.73;;;14.00;47.10;;;;;;6120159;29;20108;-64
2022/11/20 15:50:56;;;;;;;5.05;1.90;;;14.00;47.20;;;;;;6120570;28;20054;-64
2022/11/20 15:53:57;;;;;;;2.67;1.55;;;14.00;47.20;;;;;;6118449;28;20050;-65
2022/11/20 15:57:00;;;;;;;2.42;1.30;;;14.00;47.20;;;;;;6124244;28;20035;-64
2022/11/20 16:00:01;;;;;;;12.90;2.90;;;14.00;47.30;;;;;;6119884;29;20411;-65
2022/11/20 16:03:12;;;;;;;5.05;2.50;;;13.90;47.40;;;;;;6115154;29;20054;-64
2022/11/20 16:06:15;;;;;;;3.85;2.30;;;13.90;47.60;;;;;;6126293;28;20373;-64
2022/11/20 16:09:16;;;;;;;5.70;2.80;;;13.90;47.80;;;;;;6124783;28;20168;-65
2022/11/20 16:15:44;;;;;;;5.78;2.42;;;13.80;47.90;;;;;;6124792;28;20048;-66
2022/11/20 16:15:47;;;;;;;4.65;2.25;;;13.80;48.00;;;;;;6118093;29;20088;-64
2022/11/20 16:18:48;;;;;;;6.25;2.22;;;13.80;48.10;;;;;;6123730;28;20051;-64
2022/11/20 16:21:49;;;;;;;8.70;2.70;;;13.70;48.30;;;;;;6124966;28;20481;-64